Time;durP1;ratioP1;P1;durP2;ratioP2;P2;SDS_P1;SDS_P2;PMS_P1;PMS_P2;Temp;Humidity;BMP_temperature;BMP_pressure;BME280_temperature;BME280_humidity;BME280_pressure;Samples;Min_cycle;Max_cycle;Signal;HPM_P1;HPM_P2
2023/01/06 00:01:04;;;;;;;7.55;1.90;;;8.20;99.90;;;;;;5094427;28;20037;-62
2023/01/06 00:03:30;;;;;;;1.60;1.00;;;8.10;99.90;;;;;;5096111;28;20040;-62
2023/01/06 00:05:59;;;;;;;2.60;0.98;;;8.20;99.90;;;;;;5098811;28;20037;-62
2023/01/06 00:08:26;;;;;;;1.23;0.63;;;8.20;99.90;;;;;;5103984;28;20541;-63
2023/01/06 00:10:53;;;;;;;1.88;1.00;;;8.20;99.90;;;;;;5110168;28;20043;-63
2023/01/06 00:13:20;;;;;;;1.38;0.70;;;8.20;99.90;;;;;;5105898;28;20441;-63
2023/01/06 00:15:47;;;;;;;3.40;1.08;;;8.20;99.90;;;;;;5094822;28;20036;-63
2023/01/06 00:18:14;;;;;;;2.20;1.10;;;8.20;99.90;;;;;;5106019;28;20068;-62
2023/01/06 00:20:40;;;;;;;2.65;1.08;;;8.20;99.90;;;;;;5105925;28;20097;-62
2023/01/06 00:23:07;;;;;;;1.15;0.80;;;8.10;99.90;;;;;;5109451;28;20043;-62
2023/01/06 00:25:34;;;;;;;1.17;0.90;;;8.10;99.90;;;;;;5096471;28;20040;-62
2023/01/06 00:28:00;;;;;;;2.80;0.95;;;8.00;99.90;;;;;;5101405;28;20036;-62
2023/01/06 00:30:27;;;;;;;1.50;1.00;;;8.00;99.90;;;;;;5108811;28;20085;-62
2023/01/06 00:32:54;;;;;;;6.25;1.40;;;8.10;99.90;;;;;;5086043;28;20066;-63
2023/01/06 00:35:21;;;;;;;2.55;1.20;;;8.00;99.90;;;;;;5105706;28;20048;-62
2023/01/06 00:37:47;;;;;;;3.22;1.25;;;8.00;99.90;;;;;;5106402;28;20040;-62
2023/01/06 00:40:14;;;;;;;3.45;1.25;;;8.00;99.90;;;;;;5105899;28;20104;-62
2023/01/06 00:42:41;;;;;;;2.08;1.38;;;8.00;99.90;;;;;;5095169;28;20040;-62
2023/01/06 00:45:09;;;;;;;3.88;1.40;;;8.00;99.90;;;;;;5105161;28;20038;-63
2023/01/06 00:47:36;;;;;;;3.08;1.00;;;7.90;99.90;;;;;;5105845;28;20040;-62
2023/01/06 00:50:03;;;;;;;3.00;0.90;;;7.90;99.90;;;;;;5102183;28;20057;-62
2023/01/06 00:52:30;;;;;;;0.90;0.77;;;7.90;99.90;;;;;;5105195;28;20039;-62
2023/01/06 00:54:58;;;;;;;1.80;0.75;;;7.90;99.90;;;;;;5106005;28;20048;-62
2023/01/06 00:57:25;;;;;;;1.23;0.80;;;8.00;99.90;;;;;;5108979;28;20580;-62
2023/01/06 00:59:51;;;;;;;2.63;1.00;;;8.00;99.90;;;;;;5103997;28;20040;-62
2023/01/06 01:02:18;;;;;;;1.25;0.70;;;8.00;99.90;;;;;;5106101;28;20039;-62
2023/01/06 01:04:45;;;;;;;1.90;0.73;;;8.00;99.90;;;;;;5102392;28;20118;-62
2023/01/06 01:07:12;;;;;;;1.83;1.23;;;8.00;99.90;;;;;;5107512;28;20035;-62
2023/01/06 01:09:39;;;;;;;3.90;2.00;;;8.00;99.90;;;;;;5106157;28;20427;-62
2023/01/06 01:12:08;;;;;;;2.58;1.85;;;8.00;99.90;;;;;;5098237;28;20047;-62
2023/01/06 01:14:41;;;;;;;4.20;2.25;;;7.90;99.90;;;;;;5104165;28;20040;-62
2023/01/06 01:17:09;;;;;;;6.55;3.00;;;7.70;99.90;;;;;;5102496;28;20048;-62
2023/01/06 01:19:37;;;;;;;5.32;3.13;;;7.50;99.90;;;;;;5081907;28;20055;-62
2023/01/06 01:22:04;;;;;;;7.32;3.05;;;7.40;99.90;;;;;;5109618;28;20039;-62
2023/01/06 01:24:31;;;;;;;4.80;2.70;;;7.20;99.90;;;;;;5101090;28;20039;-63
2023/01/06 01:26:58;;;;;;;4.45;2.58;;;7.20;99.90;;;;;;5100817;28;20050;-62
2023/01/06 01:29:25;;;;;;;4.15;2.70;;;7.10;99.90;;;;;;5099310;28;20488;-63
2023/01/06 01:31:52;;;;;;;;;;;7.00;99.90;;;;;;5107683;28;20042;-63
2023/01/06 01:34:19;;;;;;;3.90;2.80;;;6.90;99.90;;;;;;5107696;28;20268;-63
2023/01/06 01:36:49;;;;;;;4.00;2.90;;;6.80;99.90;;;;;;5095851;28;20027;-63
2023/01/06 01:39:18;;;;;;;6.13;3.40;;;6.80;99.90;;;;;;5103865;28;20051;-63
2023/01/06 01:41:45;;;;;;;6.82;3.15;;;6.70;99.90;;;;;;5106310;28;20044;-63
2023/01/06 01:44:30;;;;;;;;;;;6.70;99.90;;;;;;5109297;28;20377;-63
2023/01/06 01:46:57;;;;;;;6.75;3.33;;;6.60;99.90;;;;;;5097926;28;19924;-63
2023/01/06 01:49:26;;;;;;;7.47;4.03;;;6.60;99.90;;;;;;5108072;28;20089;-63
2023/01/06 01:51:55;;;;;;;5.95;3.85;;;6.60;99.90;;;;;;5104078;27;20032;-63
2023/01/06 01:54:28;;;;;;;9.07;3.78;;;6.50;99.90;;;;;;5095023;28;20047;-63
2023/01/06 01:57:02;;;;;;;8.18;4.05;;;6.50;99.90;;;;;;5083952;28;20036;-63
2023/01/06 01:59:32;;;;;;;6.50;3.95;;;6.50;99.90;;;;;;5090947;28;20048;-63
2023/01/06 02:01:59;;;;;;;6.22;4.22;;;6.50;99.90;;;;;;5103066;28;20054;-63
2023/01/06 02:04:27;;;;;;;;;;;6.50;99.90;;;;;;5102567;28;20040;-63
2023/01/06 02:06:54;;;;;;;5.82;3.20;;;6.50;99.90;;;;;;5103497;28;19920;-63
2023/01/06 02:09:23;;;;;;;5.78;3.40;;;6.50;99.90;;;;;;5104056;28;20040;-62
2023/01/06 02:11:51;;;;;;;4.95;2.90;;;6.50;99.90;;;;;;5094826;28;20101;-62
2023/01/06 02:14:21;;;;;;;6.65;3.72;;;6.50;99.90;;;;;;5095155;28;20044;-63
2023/01/06 02:17:06;;;;;;;7.30;3.97;;;6.50;99.90;;;;;;5107756;28;20508;-62
2023/01/06 02:20:03;;;;;;;5.45;3.60;;;6.40;99.90;;;;;;5107383;28;20044;-62
2023/01/06 02:22:57;;;;;;;5.75;3.72;;;6.30;99.90;;;;;;5089686;28;20492;-62
2023/01/06 02:25:49;;;;;;;3.88;3.00;;;6.30;99.90;;;;;;5102927;28;20040;-63
2023/01/06 02:28:40;;;;;;;4.80;3.33;;;6.20;99.90;;;;;;5106806;28;20039;-62
2023/01/06 02:31:19;;;;;;;;;;;6.20;99.90;;;;;;5087658;28;20488;-62
2023/01/06 02:33:58;;;;;;;5.93;3.40;;;6.10;99.90;;;;;;5109089;28;19974;-63
2023/01/06 02:36:52;;;;;;;4.15;2.60;;;6.10;99.90;;;;;;5103334;28;20066;-62
2023/01/06 02:39:34;;;;;;;5.72;3.40;;;6.10;99.90;;;;;;5095990;28;20048;-62
2023/01/06 02:42:07;;;;;;;4.45;3.17;;;6.00;99.90;;;;;;5101569;28;20079;-62
2023/01/06 02:44:47;;;;;;;6.20;3.50;;;5.90;99.90;;;;;;5100163;28;20050;-63
2023/01/06 02:47:26;;;;;;;5.30;3.40;;;5.80;99.90;;;;;;5102925;28;20147;-62
2023/01/06 02:50:12;;;;;;;4.28;2.55;;;5.80;99.90;;;;;;5100594;28;20044;-63
2023/01/06 02:52:42;;;;;;;4.50;2.80;;;5.70;99.90;;;;;;5099960;28;20067;-62
2023/01/06 02:55:25;;;;;;;4.68;2.72;;;5.70;99.90;;;;;;5105161;28;20090;-62
2023/01/06 02:58:04;;;;;;;2.08;1.20;;;5.70;99.90;;;;;;5086761;28;20699;-63
2023/01/06 03:00:56;;;;;;;2.65;1.63;;;5.70;99.90;;;;;;5099402;28;20055;-62
2023/01/06 03:03:28;;;;;;;1.63;1.08;;;5.70;99.90;;;;;;5106754;28;20039;-62
2023/01/06 03:06:02;;;;;;;2.10;1.00;;;5.70;99.90;;;;;;5109156;27;20059;-62
2023/01/06 03:08:31;;;;;;;1.65;1.45;;;5.60;99.90;;;;;;5113301;28;20060;-63
2023/01/06 03:11:00;;;;;;;5.05;3.05;;;5.60;99.90;;;;;;5114265;28;20093;-62
2023/01/06 03:13:33;;;;;;;3.70;2.22;;;5.60;99.90;;;;;;5082410;28;20044;-62
2023/01/06 03:16:00;;;;;;;3.58;2.75;;;5.50;99.90;;;;;;5093545;28;20924;-62
2023/01/06 03:18:28;;;;;;;4.25;2.53;;;5.50;99.90;;;;;;5092946;28;20467;-62
2023/01/06 03:20:58;;;;;;;4.78;1.73;;;5.40;99.90;;;;;;5091414;28;20492;-62
2023/01/06 03:23:25;;;;;;;4.50;2.13;;;5.40;99.90;;;;;;5093474;28;20090;-62
2023/01/06 03:25:52;;;;;;;4.60;3.17;;;5.40;99.90;;;;;;5087341;28;20123;-59
2023/01/06 03:28:33;;;;;;;8.45;3.75;;;5.40;99.90;;;;;;5102855;28;20055;-61
2023/01/06 03:31:25;;;;;;;9.68;5.85;;;5.40;99.90;;;;;;5101390;27;20074;-61
2023/01/06 03:34:07;;;;;;;9.52;6.05;;;5.50;99.90;;;;;;5092097;28;20097;-61
2023/01/06 03:36:53;;;;;;;15.82;6.78;;;5.40;99.90;;;;;;5093408;28;20048;-61
2023/01/06 03:39:52;;;;;;;10.48;6.18;;;5.40;99.90;;;;;;5085382;28;20151;-60
2023/01/06 03:45:49;;;;;;;15.48;5.75;;;5.20;99.90;;;;;;5094656;28;20070;-60
2023/01/06 03:48:27;;;;;;;10.63;6.25;;;5.10;99.90;;;;;;5092659;28;20127;-61
2023/01/06 03:51:06;;;;;;;8.65;4.90;;;5.10;99.90;;;;;;5092631;28;20044;-61
2023/01/06 03:53:40;;;;;;;8.82;4.78;;;5.00;99.90;;;;;;5091376;28;20048;-61
2023/01/06 03:56:26;;;;;;;7.70;4.30;;;4.90;99.90;;;;;;5089690;28;20047;-60
2023/01/06 03:58:58;;;;;;;8.70;4.45;;;4.90;99.90;;;;;;5071791;28;20135;-61
2023/01/06 04:01:26;;;;;;;6.25;4.32;;;4.80;99.90;;;;;;5080591;28;20056;-61
2023/01/06 04:03:54;;;;;;;6.18;3.85;;;4.80;99.90;;;;;;5073396;28;20044;-60
2023/01/06 04:06:25;;;;;;;6.85;4.00;;;4.80;99.90;;;;;;5072238;28;20036;-61
2023/01/06 04:08:52;;;;;;;6.30;3.83;;;4.70;99.90;;;;;;5077089;28;20043;-61
2023/01/06 04:14:07;;;;;;;7.75;4.20;;;4.80;99.90;;;;;;5071496;28;20048;-60
2023/01/06 04:16:34;;;;;;;7.35;4.28;;;4.80;99.90;;;;;;5073866;28;20489;-60
2023/01/06 04:19:01;;;;;;;;;;;4.80;99.90;;;;;;5084345;28;20531;-60
2023/01/06 04:21:29;;;;;;;8.48;4.40;;;4.80;99.90;;;;;;5081000;28;19928;-60
2023/01/06 04:23:56;;;;;;;;;;;4.80;99.90;;;;;;5092923;28;20070;-61
2023/01/06 04:26:22;;;;;;;6.05;4.05;;;4.80;99.90;;;;;;5091735;28;19920;-61
2023/01/06 04:28:50;;;;;;;6.57;4.22;;;4.80;99.90;;;;;;5084376;28;20122;-60
2023/01/06 04:31:17;;;;;;;5.45;4.00;;;4.70;99.90;;;;;;5093853;28;20035;-60
2023/01/06 04:33:46;;;;;;;8.05;4.35;;;4.70;99.90;;;;;;5092335;28;20204;-60
2023/01/06 04:36:14;;;;;;;7.75;4.22;;;4.70;99.90;;;;;;5085059;28;20041;-61
2023/01/06 04:38:46;;;;;;;7.20;4.32;;;4.70;99.90;;;;;;5072480;28;20049;-60
2023/01/06 04:41:13;;;;;;;7.25;4.32;;;4.70;99.90;;;;;;5073573;28;20456;-60
2023/01/06 04:43:40;;;;;;;7.50;4.68;;;4.70;99.90;;;;;;5072588;28;20045;-60
2023/01/06 04:46:07;;;;;;;9.32;4.93;;;4.70;99.90;;;;;;5083353;28;20032;-60
2023/01/06 04:48:34;;;;;;;5.15;3.78;;;4.70;99.90;;;;;;5085125;28;20453;-61
2023/01/06 04:51:08;;;;;;;5.40;4.00;;;4.70;99.90;;;;;;5078171;28;20078;-60
2023/01/06 04:53:37;;;;;;;10.38;4.55;;;4.70;99.90;;;;;;5072646;28;20496;-61
2023/01/06 04:56:06;;;;;;;7.82;4.55;;;4.60;99.90;;;;;;5073007;28;20045;-60
2023/01/06 04:58:34;;;;;;;6.80;4.28;;;4.60;99.90;;;;;;5073828;28;20048;-60
2023/01/06 05:01:03;;;;;;;6.43;4.40;;;4.60;99.90;;;;;;5078296;28;20036;-61
2023/01/06 05:03:30;;;;;;;7.65;4.32;;;4.50;99.90;;;;;;5072459;28;20048;-60
2023/01/06 05:06:08;;;;;;;10.05;4.45;;;4.50;99.90;;;;;;5072758;28;20051;-60
2023/01/06 05:08:37;;;;;;;8.85;5.68;;;4.40;99.90;;;;;;5076725;28;20052;-60
2023/01/06 05:11:10;;;;;;;11.45;5.70;;;4.40;99.90;;;;;;5085564;28;20044;-61
2023/01/06 05:13:37;;;;;;;10.35;4.88;;;4.40;99.90;;;;;;5073004;28;20056;-60
2023/01/06 05:16:14;;;;;;;8.02;4.15;;;4.30;99.90;;;;;;5072306;28;20071;-60
2023/01/06 05:18:41;;;;;;;5.43;3.00;;;4.30;99.90;;;;;;5072743;28;20052;-60
2023/01/06 05:21:08;;;;;;;5.95;3.10;;;4.30;99.90;;;;;;5085126;28;20033;-60
2023/01/06 05:23:36;;;;;;;7.15;4.00;;;4.20;99.90;;;;;;5090334;28;20036;-60
2023/01/06 05:26:04;;;;;;;6.97;4.25;;;4.20;99.90;;;;;;5090832;28;20086;-61
2023/01/06 05:28:31;;;;;;;7.65;4.65;;;4.20;99.90;;;;;;5083080;28;20048;-60
2023/01/06 05:31:03;;;;;;;7.55;4.72;;;4.20;99.90;;;;;;5071812;28;20037;-60
2023/01/06 05:33:32;;;;;;;10.88;4.43;;;4.10;99.90;;;;;;5085635;28;20048;-60
2023/01/06 05:36:01;;;;;;;8.00;4.57;;;4.10;99.90;;;;;;5091821;28;20089;-60
2023/01/06 05:38:28;;;;;;;9.70;4.75;;;4.10;99.90;;;;;;5081488;28;20451;-60
2023/01/06 05:40:55;;;;;;;6.55;4.10;;;4.10;99.90;;;;;;5092119;28;20123;-60
2023/01/06 05:43:23;;;;;;;8.75;4.72;;;4.10;99.90;;;;;;5091507;28;20446;-60
2023/01/06 05:45:51;;;;;;;11.18;4.85;;;4.00;99.90;;;;;;5092441;28;20068;-60
2023/01/06 05:48:18;;;;;;;8.07;4.60;;;4.00;99.90;;;;;;5082597;28;20511;-60
2023/01/06 05:50:45;;;;;;;;;;;4.00;99.90;;;;;;5072437;28;20497;-60
2023/01/06 05:53:12;;;;;;;7.65;4.30;;;4.00;99.90;;;;;;5071345;28;20459;-60
2023/01/06 05:55:38;;;;;;;8.77;4.65;;;4.00;99.90;;;;;;5072054;28;20074;-60
2023/01/06 05:58:05;;;;;;;8.38;5.70;;;4.00;99.90;;;;;;5081621;28;20067;-60
2023/01/06 06:00:32;;;;;;;11.70;6.70;;;4.00;99.90;;;;;;5082485;28;20048;-60
2023/01/06 06:02:59;;;;;;;9.00;5.68;;;4.00;99.90;;;;;;5073373;28;20508;-60
2023/01/06 06:05:25;;;;;;;7.65;4.70;;;3.90;99.90;;;;;;5071745;28;20045;-60
2023/01/06 06:07:55;;;;;;;8.90;6.03;;;3.90;99.90;;;;;;5075542;28;20032;-60
2023/01/06 06:10:22;;;;;;;7.85;5.05;;;3.90;99.90;;;;;;5082943;28;20070;-60
2023/01/06 06:12:52;;;;;;;9.75;4.95;;;3.90;99.90;;;;;;5074391;28;20039;-60
2023/01/06 06:15:19;;;;;;;8.40;4.45;;;3.80;99.90;;;;;;5091782;28;20048;-60
2023/01/06 06:17:45;;;;;;;8.02;4.65;;;3.80;99.90;;;;;;5082623;28;20454;-60
2023/01/06 06:20:12;;;;;;;10.88;6.25;;;3.80;99.90;;;;;;5082316;28;20058;-60
2023/01/06 06:22:39;;;;;;;10.98;6.45;;;3.70;99.90;;;;;;5072221;28;20040;-60
2023/01/06 06:25:06;;;;;;;18.67;8.18;;;3.80;99.90;;;;;;5071458;28;20489;-60
2023/01/06 06:27:33;;;;;;;17.20;9.25;;;3.70;99.90;;;;;;5071207;28;20044;-60
2023/01/06 06:29:59;;;;;;;19.95;9.27;;;3.70;99.90;;;;;;5072777;28;20045;-60
2023/01/06 06:32:29;;;;;;;18.95;8.98;;;3.70;99.90;;;;;;5084772;28;20040;-60
2023/01/06 06:34:56;;;;;;;15.35;7.65;;;3.70;99.90;;;;;;5071339;28;20047;-60
2023/01/06 06:37:23;;;;;;;18.92;9.38;;;3.70;99.90;;;;;;5070280;28;20102;-60
2023/01/06 06:39:50;;;;;;;18.13;10.65;;;3.60;99.90;;;;;;5071585;28;20369;-60
2023/01/06 06:42:17;;;;;;;19.15;12.82;;;3.60;99.90;;;;;;5070336;28;20072;-60
2023/01/06 06:44:44;;;;;;;16.50;10.07;;;3.60;99.90;;;;;;5070966;28;20526;-60
2023/01/06 06:47:11;;;;;;;12.65;7.70;;;3.60;99.90;;;;;;5080872;28;20032;-60
2023/01/06 06:49:38;;;;;;;10.23;5.97;;;3.60;99.90;;;;;;5083185;28;20051;-60
2023/01/06 06:52:04;;;;;;;9.15;5.05;;;3.60;99.90;;;;;;5091266;28;20070;-60
2023/01/06 06:54:31;;;;;;;8.40;4.70;;;3.60;99.90;;;;;;5090369;28;20068;-61
2023/01/06 06:56:58;;;;;;;10.68;4.93;;;3.50;99.90;;;;;;5082780;28;20031;-60
2023/01/06 06:59:24;;;;;;;6.07;4.55;;;3.50;99.90;;;;;;5089378;28;20048;-60
2023/01/06 07:01:51;;;;;;;8.02;4.47;;;3.50;99.90;;;;;;5090895;28;20504;-60
2023/01/06 07:04:18;;;;;;;6.38;3.95;;;3.50;99.90;;;;;;5091003;28;20105;-61
2023/01/06 07:06:45;;;;;;;6.15;3.67;;;3.50;99.90;;;;;;5091322;28;20067;-61
2023/01/06 07:09:11;;;;;;;7.10;4.35;;;3.50;99.90;;;;;;5089904;28;20048;-61
2023/01/06 07:11:38;;;;;;;7.85;4.65;;;3.50;99.90;;;;;;5082565;28;20047;-61
2023/01/06 07:14:05;;;;;;;7.75;4.53;;;3.60;99.90;;;;;;5091405;28;20382;-62
2023/01/06 07:16:31;;;;;;;7.70;5.20;;;3.60;99.90;;;;;;5089920;28;20393;-63
2023/01/06 07:18:58;;;;;;;8.65;4.47;;;3.60;99.90;;;;;;5082824;28;20097;-61
2023/01/06 07:21:25;;;;;;;7.22;4.13;;;3.60;99.90;;;;;;5081153;28;20497;-62
2023/01/06 07:23:52;;;;;;;8.52;4.70;;;3.60;99.90;;;;;;5070959;28;20050;-62
2023/01/06 07:26:18;;;;;;;6.05;3.67;;;3.60;99.90;;;;;;5070611;28;20037;-62
2023/01/06 07:28:45;;;;;;;5.75;3.60;;;3.60;99.90;;;;;;5071013;28;20451;-62
2023/01/06 07:31:12;;;;;;;7.63;4.80;;;3.70;99.90;;;;;;5082525;28;20094;-61
2023/01/06 07:33:38;;;;;;;8.25;5.35;;;3.70;99.90;;;;;;5077395;28;20055;-59
2023/01/06 07:36:06;;;;;;;8.40;4.57;;;3.70;99.90;;;;;;5070762;28;20451;-60
2023/01/06 07:38:32;;;;;;;13.23;4.57;;;3.70;99.90;;;;;;5070434;28;20097;-60
2023/01/06 07:41:00;;;;;;;6.90;4.00;;;3.80;99.90;;;;;;5072969;28;20040;-61
2023/01/06 07:43:27;;;;;;;10.20;4.75;;;3.80;99.90;;;;;;5079583;28;20142;-60
2023/01/06 07:45:53;;;;;;;9.10;4.82;;;3.80;99.90;;;;;;5069360;28;20032;-60
2023/01/06 07:48:20;;;;;;;9.32;4.82;;;3.90;99.90;;;;;;5072926;28;20149;-61
2023/01/06 07:50:47;;;;;;;11.57;5.53;;;3.80;99.90;;;;;;5074159;28;20520;-61
2023/01/06 07:53:14;;;;;;;8.82;4.82;;;3.80;99.90;;;;;;5072743;28;20041;-61
2023/01/06 07:55:40;;;;;;;7.80;4.90;;;3.80;99.90;;;;;;5074249;28;20056;-61
2023/01/06 07:58:08;;;;;;;8.18;4.70;;;3.80;99.90;;;;;;5085276;28;20039;-61
2023/01/06 08:00:36;;;;;;;7.60;4.55;;;3.80;99.90;;;;;;5073810;28;20067;-61
2023/01/06 08:03:06;;;;;;;11.20;6.10;;;3.80;99.90;;;;;;5073140;28;20106;-59
2023/01/06 08:05:37;;;;;;;21.80;9.95;;;3.80;99.90;;;;;;5073929;28;20047;-60
2023/01/06 08:08:04;;;;;;;61.60;23.05;;;3.80;99.90;;;;;;5084644;28;20102;-61
2023/01/06 08:10:31;;;;;;;17.95;8.18;;;3.80;99.90;;;;;;5073937;28;20079;-59
2023/01/06 08:12:58;;;;;;;9.95;5.07;;;3.70;99.90;;;;;;5072794;28;20045;-63
2023/01/06 08:15:25;;;;;;;8.43;4.35;;;3.80;99.90;;;;;;5072556;28;20468;-62
2023/01/06 08:17:53;;;;;;;8.52;4.85;;;3.80;99.90;;;;;;5076147;28;20479;-60
2023/01/06 08:20:20;;;;;;;8.45;4.65;;;3.80;99.90;;;;;;5073647;28;20040;-62
2023/01/06 08:22:46;;;;;;;7.68;4.65;;;3.80;99.90;;;;;;5073106;28;20048;-62
2023/01/06 08:25:13;;;;;;;12.60;5.90;;;3.80;99.90;;;;;;5075084;28;20097;-62
2023/01/06 08:27:40;;;;;;;8.20;4.75;;;3.80;99.90;;;;;;5083408;28;20113;-61
2023/01/06 08:30:07;;;;;;;8.88;4.65;;;3.70;99.90;;;;;;5078457;28;20484;-60
2023/01/06 08:32:34;;;;;;;10.38;5.72;;;3.70;99.90;;;;;;5093554;28;20040;-64
2023/01/06 08:35:01;;;;;;;10.25;4.90;;;3.80;99.90;;;;;;5093412;28;20052;-60
2023/01/06 08:37:28;;;;;;;10.27;4.72;;;3.70;99.90;;;;;;5090341;28;20097;-60
2023/01/06 08:39:55;;;;;;;7.95;5.30;;;3.70;99.90;;;;;;5073128;28;20048;-60
2023/01/06 08:42:22;;;;;;;11.50;5.82;;;3.70;99.90;;;;;;5072540;28;20053;-62
2023/01/06 08:44:48;;;;;;;11.57;5.80;;;3.70;99.90;;;;;;5073051;28;20049;-62
2023/01/06 08:47:15;;;;;;;15.77;8.50;;;3.80;99.90;;;;;;5083488;28;20695;-60
2023/01/06 08:49:42;;;;;;;13.52;6.97;;;3.90;99.90;;;;;;5081374;28;20044;-62
2023/01/06 08:52:09;;;;;;;15.43;7.13;;;4.00;99.90;;;;;;5072786;28;20101;-62
2023/01/06 08:54:35;;;;;;;14.02;5.72;;;4.10;99.90;;;;;;5071384;28;20052;-63
2023/01/06 08:57:02;;;;;;;18.73;8.35;;;4.20;99.90;;;;;;5072800;28;20052;-62
2023/01/06 08:59:29;;;;;;;21.52;9.30;;;4.20;99.90;;;;;;5083116;28;20079;-62
2023/01/06 09:01:56;;;;;;;11.35;6.35;;;4.20;99.90;;;;;;5072938;28;20036;-59
2023/01/06 09:04:23;;;;;;;8.45;4.57;;;4.30;99.90;;;;;;5071934;28;20044;-62
2023/01/06 09:06:50;;;;;;;10.93;5.05;;;4.40;99.90;;;;;;5070831;28;20076;-62
2023/01/06 09:09:16;;;;;;;6.65;3.75;;;4.40;99.90;;;;;;5072565;28;20045;-62
2023/01/06 09:11:44;;;;;;;7.88;3.60;;;4.50;99.90;;;;;;5083573;28;20083;-62
2023/01/06 09:14:14;;;;;;;12.88;5.75;;;4.60;99.90;;;;;;5073684;28;20045;-61
2023/01/06 09:16:41;;;;;;;10.80;5.50;;;4.70;99.90;;;;;;5072436;28;20049;-61
2023/01/06 09:19:11;;;;;;;7.70;5.03;;;4.70;99.90;;;;;;5072414;28;20090;-62
2023/01/06 09:21:41;;;;;;;11.93;6.65;;;4.70;99.90;;;;;;5082033;28;20093;-65
2023/01/06 09:24:12;;;;;;;9.98;5.55;;;4.80;99.90;;;;;;5085994;28;20043;-62
2023/01/06 09:26:43;;;;;;;12.85;7.53;;;4.80;99.90;;;;;;5085327;22;20048;31
2023/01/06 09:29:09;;;;;;;14.85;5.95;;;4.80;99.90;;;;;;5062108;28;20075;-63
2023/01/06 09:31:36;;;;;;;18.13;6.80;;;4.80;99.90;;;;;;5070949;28;20044;-61
2023/01/06 09:34:03;;;;;;;17.73;7.65;;;4.80;99.90;;;;;;5070964;28;20043;-61
2023/01/06 09:36:31;;;;;;;15.27;6.97;;;4.90;99.90;;;;;;5070551;28;20032;-64
2023/01/06 09:38:58;;;;;;;13.18;6.35;;;5.00;99.90;;;;;;5040622;28;20106;-63
2023/01/06 09:42:23;;;;;;;11.38;5.25;;;5.10;99.90;;;;;;5048863;28;20041;-61
2023/01/06 09:45:03;;;;;;;10.02;4.85;;;5.20;99.90;;;;;;5032981;28;20102;-63
2023/01/06 09:47:35;;;;;;;9.88;4.65;;;5.20;99.90;;;;;;5051321;28;20506;-63
2023/01/06 09:50:13;;;;;;;8.73;4.30;;;5.30;99.90;;;;;;5051145;28;20033;-63
2023/01/06 09:52:50;;;;;;;8.38;4.05;;;5.40;99.90;;;;;;5051104;28;20528;-61
2023/01/06 09:55:31;;;;;;;7.35;3.72;;;5.30;99.90;;;;;;5043392;28;20044;-61
2023/01/06 09:58:03;;;;;;;6.97;3.95;;;5.40;99.90;;;;;;5048819;28;20045;-61
2023/01/06 10:00:36;;;;;;;11.73;5.07;;;5.40;99.90;;;;;;5051354;28;20079;-61
2023/01/06 10:03:04;;;;;;;11.48;4.30;;;5.40;99.90;;;;;;5037990;28;20048;-61
2023/01/06 10:05:42;;;;;;;6.60;4.40;;;5.40;99.90;;;;;;5050664;28;20095;-63
2023/01/06 10:08:16;;;;;;;;;;;5.40;99.90;;;;;;5051502;28;20037;-61
2023/01/06 10:11:03;;;;;;;9.45;4.88;;;5.40;99.90;;;;;;5051005;28;19951;-61
2023/01/06 10:14:11;;;;;;;7.25;4.25;;;5.50;99.90;;;;;;5049831;28;20069;-61
2023/01/06 10:17:16;;;;;;;7.47;4.05;;;5.60;99.90;;;;;;5049129;28;20037;-61
2023/01/06 10:20:29;;;;;;;6.60;4.03;;;5.80;99.90;;;;;;5050180;28;20044;-61
2023/01/06 10:23:04;;;;;;;5.88;3.78;;;5.90;99.90;;;;;;4985988;28;20051;-61
2023/01/06 10:25:43;;;;;;;9.93;3.90;;;6.10;99.90;;;;;;4978075;28;20046;-61
2023/01/06 10:28:24;;;;;;;7.28;4.40;;;6.10;99.90;;;;;;5011468;28;20084;-63
2023/01/06 10:30:54;;;;;;;5.57;3.65;;;6.00;99.90;;;;;;5049405;28;20083;-61
2023/01/06 10:33:28;;;;;;;6.03;3.92;;;6.10;99.90;;;;;;5048711;28;20076;-61
2023/01/06 10:35:56;;;;;;;5.05;3.47;;;6.20;99.90;;;;;;5049061;28;20099;-61
2023/01/06 10:38:48;;;;;;;4.78;3.50;;;6.30;99.90;;;;;;5049684;28;20045;-61
2023/01/06 10:41:18;;;;;;;6.80;3.67;;;6.40;99.90;;;;;;5042940;28;20568;-61
2023/01/06 10:43:44;;;;;;;5.72;3.10;;;6.40;99.90;;;;;;5050149;28;20552;-61
2023/01/06 10:46:11;;;;;;;5.78;3.50;;;6.50;99.90;;;;;;5050394;28;20091;-61
2023/01/06 10:48:39;;;;;;;7.45;3.70;;;6.50;99.90;;;;;;5048681;28;20040;-61
2023/01/06 10:51:26;;;;;;;9.07;3.33;;;6.60;99.90;;;;;;5048866;28;20037;-61
2023/01/06 10:53:56;;;;;;;4.45;3.00;;;6.60;99.90;;;;;;5050526;28;20539;-61
2023/01/06 10:56:26;;;;;;;4.30;2.70;;;6.60;99.90;;;;;;5050155;28;20056;-61
2023/01/06 10:58:58;;;;;;;4.60;3.40;;;6.80;99.90;;;;;;5049963;28;20099;-61
2023/01/06 11:01:26;;;;;;;4.50;3.40;;;6.90;99.90;;;;;;5050340;28;20490;-61
2023/01/06 11:04:10;;;;;;;4.10;2.78;;;6.90;99.90;;;;;;5050379;28;20037;-61
2023/01/06 11:06:57;;;;;;;5.10;3.30;;;7.00;99.90;;;;;;5049251;28;20060;-61
2023/01/06 11:09:32;;;;;;;6.53;3.30;;;7.00;99.90;;;;;;5049941;28;20106;-61
2023/01/06 11:12:02;;;;;;;5.47;2.90;;;7.10;99.90;;;;;;5049592;28;20037;-61
2023/01/06 11:14:31;;;;;;;6.20;3.45;;;7.20;99.90;;;;;;5056827;28;20077;-61
2023/01/06 11:17:08;;;;;;;5.35;3.80;;;7.30;99.90;;;;;;5049282;28;20414;-61
2023/01/06 11:19:40;;;;;;;7.03;3.50;;;7.20;99.90;;;;;;5049991;28;20069;-61
2023/01/06 11:22:35;;;;;;;8.50;4.28;;;7.20;99.90;;;;;;5050435;28;20128;-61
2023/01/06 11:25:03;;;;;;;8.82;4.45;;;7.20;99.90;;;;;;5048304;28;20625;-61
2023/01/06 11:27:29;;;;;;;13.73;6.00;;;7.10;99.90;;;;;;5053830;28;20457;-61
2023/01/06 11:29:56;;;;;;;10.68;5.00;;;7.10;99.90;;;;;;5049556;28;20060;-61
2023/01/06 11:32:26;;;;;;;10.65;5.43;;;7.20;99.90;;;;;;5053951;28;20490;-61
2023/01/06 11:34:55;;;;;;;6.32;3.97;;;7.20;99.90;;;;;;5047686;28;20037;-61
2023/01/06 11:37:40;;;;;;;5.40;3.50;;;7.20;99.90;;;;;;5054402;28;20153;-61
2023/01/06 11:40:16;;;;;;;6.70;3.72;;;7.20;99.90;;;;;;5050281;28;20098;-61
2023/01/06 11:42:47;;;;;;;4.25;2.65;;;7.20;99.90;;;;;;5053391;28;20037;-61
2023/01/06 11:45:34;;;;;;;3.80;2.80;;;7.30;99.90;;;;;;5053248;28;20371;-61
2023/01/06 11:48:04;;;;;;;4.28;2.60;;;7.40;99.90;;;;;;5053859;28;20211;-61
2023/01/06 11:50:31;;;;;;;4.82;3.65;;;7.30;99.90;;;;;;5053781;28;20071;-63
2023/01/06 11:53:03;;;;;;;9.63;5.50;;;7.30;99.90;;;;;;5053343;28;20029;-61
2023/01/06 11:55:30;;;;;;;8.07;3.72;;;7.30;99.90;;;;;;5053660;28;20045;-61
2023/01/06 11:58:17;;;;;;;4.78;3.33;;;7.30;99.90;;;;;;5054102;28;20065;-61
2023/01/06 12:00:52;;;;;;;4.47;3.13;;;7.50;99.90;;;;;;5053756;28;20452;-61
2023/01/06 12:03:18;;;;;;;6.07;3.00;;;7.50;99.90;;;;;;5048965;28;20049;-61
2023/01/06 12:06:23;;;;;;;4.93;3.05;;;7.60;99.90;;;;;;5053716;28;20041;-61
2023/01/06 12:08:59;;;;;;;7.05;2.80;;;7.70;99.90;;;;;;5053223;28;20041;-61
2023/01/06 12:11:35;;;;;;;4.38;2.78;;;7.70;99.90;;;;;;5052840;28;20116;-61
2023/01/06 12:14:01;;;;;;;5.47;3.25;;;7.70;99.90;;;;;;5053351;28;20075;-61
2023/01/06 12:17:17;;;;;;;4.95;2.55;;;7.70;99.90;;;;;;5053242;28;20485;-61
2023/01/06 12:19:49;;;;;;;6.47;3.10;;;7.80;99.90;;;;;;5049779;28;20112;-61
2023/01/06 12:22:37;;;;;;;3.25;2.30;;;7.90;99.90;;;;;;5052045;28;20052;-61
2023/01/06 12:25:08;;;;;;;4.40;3.00;;;7.90;99.90;;;;;;5052434;28;20099;-61
2023/01/06 12:27:48;;;;;;;6.43;2.78;;;8.00;99.90;;;;;;5051966;28;20493;-61
2023/01/06 12:30:33;;;;;;;3.95;2.63;;;8.10;99.90;;;;;;5052228;28;20041;-63
2023/01/06 12:33:08;;;;;;;3.30;2.45;;;8.10;99.90;;;;;;5052023;28;20112;-63
2023/01/06 12:35:36;;;;;;;4.47;2.50;;;8.20;99.90;;;;;;5051158;28;20174;-63
2023/01/06 12:38:21;;;;;;;3.58;2.40;;;8.20;99.90;;;;;;5051878;28;20057;-61
2023/01/06 12:40:54;;;;;;;3.58;2.40;;;8.30;99.90;;;;;;5052187;28;20041;-63
2023/01/06 12:43:23;;;;;;;4.43;2.53;;;8.30;99.90;;;;;;5051747;28;20510;-61
2023/01/06 12:46:18;;;;;;;4.85;2.72;;;8.30;99.90;;;;;;5051514;28;20073;-63
2023/01/06 12:48:49;;;;;;;2.22;1.83;;;8.40;99.90;;;;;;5052761;28;20127;-63
2023/01/06 12:51:20;;;;;;;4.18;2.00;;;8.40;99.90;;;;;;5048894;28;20099;-63
2023/01/06 12:53:58;;;;;;;7.22;2.42;;;8.50;99.90;;;;;;5050229;28;20098;-63
2023/01/06 12:56:56;;;;;;;4.68;2.28;;;8.50;99.90;;;;;;5052381;28;20108;-61
2023/01/06 12:59:47;;;;;;;4.70;2.35;;;8.60;99.90;;;;;;5049393;28;20498;-61
2023/01/06 13:02:32;;;;;;;3.83;2.05;;;8.60;99.90;;;;;;5050914;28;20040;-61
2023/01/06 13:05:04;;;;;;;5.68;2.47;;;8.60;99.90;;;;;;5051689;28;20478;-61
2023/01/06 13:07:57;;;;;;;3.28;2.05;;;8.70;99.90;;;;;;5051202;28;20071;-61
2023/01/06 13:10:33;;;;;;;4.10;2.00;;;8.80;99.90;;;;;;5050722;28;20029;-62
2023/01/06 13:13:36;;;;;;;3.65;2.08;;;8.80;99.90;;;;;;5051060;28;20485;-61
2023/01/06 13:16:41;;;;;;;2.58;2.00;;;8.80;99.90;;;;;;5050910;28;20083;-61
2023/01/06 13:19:14;;;;;;;7.85;2.70;;;8.80;99.90;;;;;;5039958;28;20066;-61
2023/01/06 13:21:42;;;;;;;3.55;2.00;;;8.90;99.90;;;;;;5050254;28;20110;-61
2023/01/06 13:24:53;;;;;;;3.28;2.35;;;8.90;99.90;;;;;;5050747;28;20044;-61
2023/01/06 13:27:46;;;;;;;4.18;1.80;;;8.90;99.90;;;;;;5023311;28;20464;-62
2023/01/06 13:30:33;;;;;;;3.75;2.30;;;9.00;99.90;;;;;;5046368;28;20547;-61